sensor_id;sensor_type;location;lat;lon;timestamp;P1;durP1;ratioP1;P2;durP2;ratioP2
74900;SDS011;63461;51.416;6.758;2023-05-10T00:01:24;18.30;;;10.02;;
74900;SDS011;63461;51.416;6.758;2023-05-10T00:03:49;17.77;;;9.33;;
74900;SDS011;63461;51.416;6.758;2023-05-10T00:06:15;17.30;;;7.82;;
74900;SDS011;63461;51.416;6.758;2023-05-10T00:08:41;17.83;;;10.25;;
74900;SDS011;63461;51.416;6.758;2023-05-10T00:11:07;17.23;;;9.32;;
74900;SDS011;63461;51.416;6.758;2023-05-10T00:13:33;19.10;;;9.57;;
74900;SDS011;63461;51.416;6.758;2023-05-10T00:15:58;17.73;;;9.50;;
74900;SDS011;63461;51.416;6.758;2023-05-10T00:18:25;18.73;;;10.18;;
74900;SDS011;63461;51.416;6.758;2023-05-10T00:20:51;15.60;;;8.73;;
74900;SDS011;63461;51.416;6.758;2023-05-10T00:23:17;16.63;;;9.25;;
74900;SDS011;63461;51.416;6.758;2023-05-10T00:25:43;16.55;;;9.30;;
74900;SDS011;63461;51.416;6.758;2023-05-10T00:28:08;16.38;;;8.93;;
74900;SDS011;63461;51.416;6.758;2023-05-10T00:30:36;14.63;;;7.93;;
74900;SDS011;63461;51.416;6.758;2023-05-10T00:33:02;14.13;;;7.57;;
74900;SDS011;63461;51.416;6.758;2023-05-10T00:35:28;15.52;;;8.30;;
74900;SDS011;63461;51.416;6.758;2023-05-10T00:37:54;16.40;;;8.35;;
74900;SDS011;63461;51.416;6.758;2023-05-10T00:40:19;13.50;;;8.05;;
74900;SDS011;63461;51.416;6.758;2023-05-10T00:42:50;14.40;;;7.97;;
74900;SDS011;63461;51.416;6.758;2023-05-10T00:45:15;16.00;;;8.88;;
74900;SDS011;63461;51.416;6.758;2023-05-10T00:47:41;17.35;;;9.15;;
74900;SDS011;63461;51.416;6.758;2023-05-10T00:50:07;16.45;;;8.90;;
74900;SDS011;63461;51.416;6.758;2023-05-10T00:52:34;17.42;;;9.23;;
74900;SDS011;63461;51.416;6.758;2023-05-10T00:55:00;16.88;;;8.90;;
74900;SDS011;63461;51.416;6.758;2023-05-10T00:57:26;19.02;;;9.07;;
74900;SDS011;63461;51.416;6.758;2023-05-10T00:59:52;18.15;;;9.48;;
74900;SDS011;63461;51.416;6.758;2023-05-10T01:02:18;16.77;;;9.18;;
74900;SDS011;63461;51.416;6.758;2023-05-10T01:04:44;17.85;;;9.80;;
74900;SDS011;63461;51.416;6.758;2023-05-10T01:07:10;17.48;;;9.25;;
74900;SDS011;63461;51.416;6.758;2023-05-10T01:09:36;20.55;;;10.32;;
74900;SDS011;63461;51.416;6.758;2023-05-10T01:12:02;22.80;;;10.25;;
74900;SDS011;63461;51.416;6.758;2023-05-10T01:14:28;19.80;;;10.57;;
74900;SDS011;63461;51.416;6.758;2023-05-10T01:16:54;20.42;;;10.80;;
74900;SDS011;63461;51.416;6.758;2023-05-10T01:19:28;21.85;;;11.07;;
74900;SDS011;63461;51.416;6.758;2023-05-10T01:25:09;19.65;;;10.98;;
74900;SDS011;63461;51.416;6.758;2023-05-10T01:27:45;24.05;;;12.13;;
74900;SDS011;63461;51.416;6.758;2023-05-10T01:38:29;22.27;;;11.45;;
74900;SDS011;63461;51.416;6.758;2023-05-10T01:41:16;23.08;;;11.25;;
74900;SDS011;63461;51.416;6.758;2023-05-10T01:46:35;20.52;;;11.02;;
74900;SDS011;63461;51.416;6.758;2023-05-10T01:49:03;18.98;;;10.57;;
74900;SDS011;63461;51.416;6.758;2023-05-10T01:51:39;19.27;;;10.35;;
74900;SDS011;63461;51.416;6.758;2023-05-10T01:54:17;19.85;;;10.25;;
74900;SDS011;63461;51.416;6.758;2023-05-10T01:56:45;18.80;;;10.02;;
74900;SDS011;63461;51.416;6.758;2023-05-10T01:59:16;20.07;;;10.33;;
74900;SDS011;63461;51.416;6.758;2023-05-10T02:01:44;17.80;;;9.75;;
74900;SDS011;63461;51.416;6.758;2023-05-10T02:04:13;23.47;;;11.50;;
74900;SDS011;63461;51.416;6.758;2023-05-10T02:06:42;23.58;;;11.50;;
74900;SDS011;63461;51.416;6.758;2023-05-10T02:09:09;22.85;;;12.27;;
74900;SDS011;63461;51.416;6.758;2023-05-10T02:11:39;25.33;;;12.60;;
74900;SDS011;63461;51.416;6.758;2023-05-10T02:14:08;24.17;;;12.82;;
74900;SDS011;63461;51.416;6.758;2023-05-10T02:16:35;26.25;;;12.70;;
74900;SDS011;63461;51.416;6.758;2023-05-10T02:19:03;24.50;;;12.75;;
74900;SDS011;63461;51.416;6.758;2023-05-10T02:21:30;25.35;;;13.38;;
74900;SDS011;63461;51.416;6.758;2023-05-10T02:23:57;28.15;;;13.20;;
74900;SDS011;63461;51.416;6.758;2023-05-10T02:26:24;31.90;;;14.30;;
74900;SDS011;63461;51.416;6.758;2023-05-10T02:28:52;26.52;;;12.65;;
74900;SDS011;63461;51.416;6.758;2023-05-10T02:31:18;22.98;;;12.82;;
74900;SDS011;63461;51.416;6.758;2023-05-10T02:33:45;23.92;;;12.32;;
74900;SDS011;63461;51.416;6.758;2023-05-10T02:36:12;28.50;;;12.87;;
74900;SDS011;63461;51.416;6.758;2023-05-10T02:38:40;26.87;;;12.77;;
74900;SDS011;63461;51.416;6.758;2023-05-10T02:41:07;22.65;;;12.05;;
74900;SDS011;63461;51.416;6.758;2023-05-10T02:43:35;25.03;;;12.17;;
74900;SDS011;63461;51.416;6.758;2023-05-10T02:46:04;26.60;;;12.30;;
74900;SDS011;63461;51.416;6.758;2023-05-10T02:48:30;26.42;;;11.80;;
74900;SDS011;63461;51.416;6.758;2023-05-10T02:50:59;23.83;;;11.73;;
74900;SDS011;63461;51.416;6.758;2023-05-10T02:53:34;24.03;;;12.00;;
74900;SDS011;63461;51.416;6.758;2023-05-10T02:56:11;26.17;;;11.88;;
74900;SDS011;63461;51.416;6.758;2023-05-10T02:58:40;24.25;;;12.05;;
74900;SDS011;63461;51.416;6.758;2023-05-10T03:01:06;25.80;;;12.00;;
74900;SDS011;63461;51.416;6.758;2023-05-10T03:03:33;21.83;;;10.90;;
74900;SDS011;63461;51.416;6.758;2023-05-10T03:05:58;24.60;;;12.00;;
74900;SDS011;63461;51.416;6.758;2023-05-10T03:08:25;22.93;;;11.20;;
74900;SDS011;63461;51.416;6.758;2023-05-10T03:16:16;21.60;;;10.30;;
74900;SDS011;63461;51.416;6.758;2023-05-10T03:18:55;20.93;;;10.47;;
74900;SDS011;63461;51.416;6.758;2023-05-10T03:21:28;21.23;;;11.15;;
74900;SDS011;63461;51.416;6.758;2023-05-10T03:23:59;22.33;;;11.30;;
74900;SDS011;63461;51.416;6.758;2023-05-10T03:26:30;21.83;;;11.07;;
74900;SDS011;63461;51.416;6.758;2023-05-10T03:29:07;21.83;;;10.97;;
74900;SDS011;63461;51.416;6.758;2023-05-10T03:31:35;22.30;;;11.05;;
74900;SDS011;63461;51.416;6.758;2023-05-10T03:34:01;24.07;;;11.57;;
74900;SDS011;63461;51.416;6.758;2023-05-10T03:36:27;23.73;;;11.93;;
74900;SDS011;63461;51.416;6.758;2023-05-10T03:38:53;24.67;;;12.13;;
74900;SDS011;63461;51.416;6.758;2023-05-10T03:41:20;29.55;;;12.40;;
74900;SDS011;63461;51.416;6.758;2023-05-10T03:43:46;25.73;;;13.32;;
74900;SDS011;63461;51.416;6.758;2023-05-10T03:46:12;29.87;;;14.00;;
74900;SDS011;63461;51.416;6.758;2023-05-10T03:48:38;31.63;;;14.47;;
74900;SDS011;63461;51.416;6.758;2023-05-10T03:51:04;29.90;;;13.37;;
74900;SDS011;63461;51.416;6.758;2023-05-10T03:53:30;29.53;;;13.70;;
74900;SDS011;63461;51.416;6.758;2023-05-10T03:55:56;33.50;;;14.37;;
74900;SDS011;63461;51.416;6.758;2023-05-10T03:58:22;33.53;;;14.23;;
74900;SDS011;63461;51.416;6.758;2023-05-10T04:00:48;33.87;;;14.73;;
74900;SDS011;63461;51.416;6.758;2023-05-10T04:03:14;31.63;;;14.17;;
74900;SDS011;63461;51.416;6.758;2023-05-10T04:05:40;33.63;;;14.57;;
74900;SDS011;63461;51.416;6.758;2023-05-10T04:08:06;33.10;;;15.40;;
74900;SDS011;63461;51.416;6.758;2023-05-10T04:10:31;35.67;;;14.90;;
74900;SDS011;63461;51.416;6.758;2023-05-10T04:12:57;38.27;;;16.30;;
74900;SDS011;63461;51.416;6.758;2023-05-10T04:15:23;39.03;;;16.65;;
74900;SDS011;63461;51.416;6.758;2023-05-10T04:17:49;36.63;;;16.53;;
74900;SDS011;63461;51.416;6.758;2023-05-10T04:20:15;36.53;;;16.83;;
74900;SDS011;63461;51.416;6.758;2023-05-10T04:22:41;35.63;;;16.30;;
74900;SDS011;63461;51.416;6.758;2023-05-10T04:25:07;38.50;;;16.80;;
74900;SDS011;63461;51.416;6.758;2023-05-10T04:27:33;37.47;;;16.23;;
74900;SDS011;63461;51.416;6.758;2023-05-10T04:29:59;36.63;;;17.43;;
74900;SDS011;63461;51.416;6.758;2023-05-10T04:32:25;37.77;;;16.50;;
74900;SDS011;63461;51.416;6.758;2023-05-10T04:34:50;37.90;;;16.67;;
74900;SDS011;63461;51.416;6.758;2023-05-10T04:37:17;38.07;;;16.87;;
74900;SDS011;63461;51.416;6.758;2023-05-10T04:39:43;39.70;;;17.30;;
74900;SDS011;63461;51.416;6.758;2023-05-10T04:42:09;41.13;;;15.70;;
74900;SDS011;63461;51.416;6.758;2023-05-10T04:44:35;37.30;;;17.13;;
74900;SDS011;63461;51.416;6.758;2023-05-10T04:47:01;41.23;;;19.37;;
74900;SDS011;63461;51.416;6.758;2023-05-10T04:49:28;42.63;;;19.43;;
74900;SDS011;63461;51.416;6.758;2023-05-10T04:51:55;42.60;;;18.97;;
74900;SDS011;63461;51.416;6.758;2023-05-10T04:54:21;44.22;;;19.25;;
74900;SDS011;63461;51.416;6.758;2023-05-10T04:56:46;40.40;;;19.07;;
74900;SDS011;63461;51.416;6.758;2023-05-10T04:59:12;39.77;;;18.63;;
74900;SDS011;63461;51.416;6.758;2023-05-10T05:01:38;40.67;;;19.17;;
74900;SDS011;63461;51.416;6.758;2023-05-10T05:04:04;41.90;;;19.07;;
74900;SDS011;63461;51.416;6.758;2023-05-10T05:06:30;44.35;;;19.65;;
74900;SDS011;63461;51.416;6.758;2023-05-10T05:08:56;44.25;;;19.55;;
74900;SDS011;63461;51.416;6.758;2023-05-10T05:11:22;43.03;;;18.88;;
74900;SDS011;63461;51.416;6.758;2023-05-10T05:13:48;45.27;;;19.07;;
74900;SDS011;63461;51.416;6.758;2023-05-10T05:16:13;39.97;;;17.60;;
74900;SDS011;63461;51.416;6.758;2023-05-10T05:18:39;41.40;;;19.63;;
74900;SDS011;63461;51.416;6.758;2023-05-10T05:21:17;42.17;;;19.23;;
74900;SDS011;63461;51.416;6.758;2023-05-10T05:23:44;46.67;;;21.07;;
74900;SDS011;63461;51.416;6.758;2023-05-10T05:26:10;44.83;;;20.40;;
74900;SDS011;63461;51.416;6.758;2023-05-10T05:28:36;42.33;;;19.73;;
74900;SDS011;63461;51.416;6.758;2023-05-10T05:31:06;47.03;;;20.13;;
74900;SDS011;63461;51.416;6.758;2023-05-10T05:33:33;45.42;;;19.70;;
74900;SDS011;63461;51.416;6.758;2023-05-10T05:36:02;46.43;;;21.43;;
74900;SDS011;63461;51.416;6.758;2023-05-10T05:38:29;46.17;;;20.80;;
74900;SDS011;63461;51.416;6.758;2023-05-10T05:40:55;43.70;;;19.23;;
74900;SDS011;63461;51.416;6.758;2023-05-10T05:43:21;45.83;;;19.95;;
74900;SDS011;63461;51.416;6.758;2023-05-10T05:45:47;47.77;;;20.00;;
74900;SDS011;63461;51.416;6.758;2023-05-10T05:48:13;45.67;;;20.60;;
74900;SDS011;63461;51.416;6.758;2023-05-10T05:50:39;44.03;;;20.60;;
74900;SDS011;63461;51.416;6.758;2023-05-10T05:53:04;50.43;;;21.80;;
74900;SDS011;63461;51.416;6.758;2023-05-10T05:55:30;51.47;;;20.37;;
74900;SDS011;63461;51.416;6.758;2023-05-10T05:57:57;47.28;;;21.08;;
74900;SDS011;63461;51.416;6.758;2023-05-10T06:00:23;49.67;;;21.57;;
74900;SDS011;63461;51.416;6.758;2023-05-10T06:02:49;50.10;;;22.23;;
74900;SDS011;63461;51.416;6.758;2023-05-10T06:05:15;49.40;;;21.45;;
74900;SDS011;63461;51.416;6.758;2023-05-10T06:07:41;60.08;;;22.90;;
74900;SDS011;63461;51.416;6.758;2023-05-10T06:10:09;56.47;;;22.38;;
74900;SDS011;63461;51.416;6.758;2023-05-10T06:12:35;52.40;;;22.42;;
74900;SDS011;63461;51.416;6.758;2023-05-10T06:15:01;59.77;;;23.73;;
74900;SDS011;63461;51.416;6.758;2023-05-10T06:17:27;54.28;;;23.52;;
74900;SDS011;63461;51.416;6.758;2023-05-10T06:19:54;59.97;;;23.52;;
74900;SDS011;63461;51.416;6.758;2023-05-10T06:22:20;58.33;;;23.30;;
74900;SDS011;63461;51.416;6.758;2023-05-10T06:24:47;62.78;;;24.92;;
74900;SDS011;63461;51.416;6.758;2023-05-10T06:27:14;66.97;;;24.07;;
74900;SDS011;63461;51.416;6.758;2023-05-10T06:29:40;68.40;;;26.17;;
74900;SDS011;63461;51.416;6.758;2023-05-10T06:32:05;64.90;;;24.60;;
74900;SDS011;63461;51.416;6.758;2023-05-10T06:34:31;64.17;;;26.00;;
74900;SDS011;63461;51.416;6.758;2023-05-10T06:36:57;67.43;;;25.40;;
74900;SDS011;63461;51.416;6.758;2023-05-10T06:39:23;68.28;;;24.80;;
74900;SDS011;63461;51.416;6.758;2023-05-10T06:41:49;60.97;;;23.10;;
74900;SDS011;63461;51.416;6.758;2023-05-10T06:44:14;67.50;;;24.67;;
74900;SDS011;63461;51.416;6.758;2023-05-10T06:46:40;62.40;;;24.52;;
74900;SDS011;63461;51.416;6.758;2023-05-10T06:49:06;58.93;;;22.30;;
74900;SDS011;63461;51.416;6.758;2023-05-10T06:51:32;63.17;;;24.63;;
74900;SDS011;63461;51.416;6.758;2023-05-10T06:53:58;58.65;;;22.63;;
74900;SDS011;63461;51.416;6.758;2023-05-10T06:56:24;57.05;;;23.23;;
74900;SDS011;63461;51.416;6.758;2023-05-10T06:58:50;59.40;;;23.60;;
74900;SDS011;63461;51.416;6.758;2023-05-10T07:01:16;63.70;;;23.85;;
74900;SDS011;63461;51.416;6.758;2023-05-10T07:03:41;59.88;;;23.42;;
74900;SDS011;63461;51.416;6.758;2023-05-10T07:06:07;53.78;;;22.63;;
74900;SDS011;63461;51.416;6.758;2023-05-10T07:08:33;57.87;;;23.80;;
74900;SDS011;63461;51.416;6.758;2023-05-10T07:11:00;56.38;;;22.75;;
74900;SDS011;63461;51.416;6.758;2023-05-10T07:13:26;56.42;;;21.85;;
74900;SDS011;63461;51.416;6.758;2023-05-10T07:15:52;58.35;;;23.33;;
74900;SDS011;63461;51.416;6.758;2023-05-10T07:18:17;60.67;;;21.63;;
74900;SDS011;63461;51.416;6.758;2023-05-10T07:20:43;59.70;;;21.90;;
74900;SDS011;63461;51.416;6.758;2023-05-10T07:23:09;50.80;;;21.00;;
74900;SDS011;63461;51.416;6.758;2023-05-10T07:25:35;52.42;;;19.90;;
74900;SDS011;63461;51.416;6.758;2023-05-10T07:28:00;53.78;;;19.67;;
74900;SDS011;63461;51.416;6.758;2023-05-10T07:30:26;49.38;;;19.90;;
74900;SDS011;63461;51.416;6.758;2023-05-10T07:32:52;47.17;;;19.40;;
74900;SDS011;63461;51.416;6.758;2023-05-10T07:35:18;42.92;;;18.50;;
74900;SDS011;63461;51.416;6.758;2023-05-10T07:37:43;43.75;;;18.67;;
74900;SDS011;63461;51.416;6.758;2023-05-10T07:40:10;44.40;;;18.25;;
74900;SDS011;63461;51.416;6.758;2023-05-10T07:42:36;45.88;;;18.15;;
74900;SDS011;63461;51.416;6.758;2023-05-10T07:45:02;46.72;;;18.88;;
74900;SDS011;63461;51.416;6.758;2023-05-10T07:47:28;46.38;;;19.33;;
74900;SDS011;63461;51.416;6.758;2023-05-10T07:49:53;46.78;;;18.83;;
74900;SDS011;63461;51.416;6.758;2023-05-10T07:52:19;54.97;;;20.50;;
74900;SDS011;63461;51.416;6.758;2023-05-10T07:54:45;47.65;;;18.92;;
74900;SDS011;63461;51.416;6.758;2023-05-10T07:57:11;48.40;;;20.40;;
74900;SDS011;63461;51.416;6.758;2023-05-10T07:59:39;50.70;;;19.67;;
74900;SDS011;63461;51.416;6.758;2023-05-10T08:02:05;46.45;;;19.45;;
74900;SDS011;63461;51.416;6.758;2023-05-10T08:04:31;52.97;;;20.45;;
74900;SDS011;63461;51.416;6.758;2023-05-10T08:06:57;47.95;;;19.25;;
74900;SDS011;63461;51.416;6.758;2023-05-10T08:09:23;51.40;;;19.90;;
74900;SDS011;63461;51.416;6.758;2023-05-10T08:11:49;48.03;;;19.75;;
74900;SDS011;63461;51.416;6.758;2023-05-10T08:14:16;47.15;;;19.83;;
74900;SDS011;63461;51.416;6.758;2023-05-10T08:16:42;51.17;;;20.35;;
74900;SDS011;63461;51.416;6.758;2023-05-10T08:19:07;53.47;;;20.73;;
74900;SDS011;63461;51.416;6.758;2023-05-10T08:21:33;52.00;;;19.67;;
74900;SDS011;63461;51.416;6.758;2023-05-10T08:23:59;48.85;;;20.33;;
74900;SDS011;63461;51.416;6.758;2023-05-10T08:26:25;49.70;;;20.73;;
74900;SDS011;63461;51.416;6.758;2023-05-10T08:28:51;48.17;;;18.88;;
74900;SDS011;63461;51.416;6.758;2023-05-10T08:31:16;48.80;;;20.48;;
74900;SDS011;63461;51.416;6.758;2023-05-10T08:33:43;45.10;;;19.10;;
74900;SDS011;63461;51.416;6.758;2023-05-10T08:36:09;44.67;;;19.15;;
74900;SDS011;63461;51.416;6.758;2023-05-10T08:38:35;44.70;;;18.50;;
74900;SDS011;63461;51.416;6.758;2023-05-10T08:41:01;45.42;;;19.73;;
74900;SDS011;63461;51.416;6.758;2023-05-10T08:43:27;48.78;;;18.77;;
74900;SDS011;63461;51.416;6.758;2023-05-10T08:45:55;40.13;;;17.85;;
74900;SDS011;63461;51.416;6.758;2023-05-10T08:48:24;37.67;;;16.92;;
74900;SDS011;63461;51.416;6.758;2023-05-10T08:50:51;44.28;;;18.52;;
74900;SDS011;63461;51.416;6.758;2023-05-10T08:53:19;43.83;;;18.80;;
74900;SDS011;63461;51.416;6.758;2023-05-10T08:55:46;43.28;;;18.38;;
74900;SDS011;63461;51.416;6.758;2023-05-10T08:58:12;41.80;;;17.70;;
74900;SDS011;63461;51.416;6.758;2023-05-10T09:00:39;47.55;;;19.08;;
74900;SDS011;63461;51.416;6.758;2023-05-10T09:03:05;40.35;;;16.98;;
74900;SDS011;63461;51.416;6.758;2023-05-10T09:05:32;42.22;;;16.85;;
74900;SDS011;63461;51.416;6.758;2023-05-10T09:07:58;34.05;;;16.00;;
74900;SDS011;63461;51.416;6.758;2023-05-10T09:10:25;38.85;;;17.08;;
74900;SDS011;63461;51.416;6.758;2023-05-10T09:12:53;32.83;;;15.57;;
74900;SDS011;63461;51.416;6.758;2023-05-10T09:15:21;35.35;;;15.30;;
74900;SDS011;63461;51.416;6.758;2023-05-10T09:17:47;32.88;;;14.60;;
74900;SDS011;63461;51.416;6.758;2023-05-10T09:20:14;33.67;;;15.27;;
74900;SDS011;63461;51.416;6.758;2023-05-10T09:22:42;34.70;;;14.98;;
74900;SDS011;63461;51.416;6.758;2023-05-10T09:25:09;35.15;;;14.80;;
74900;SDS011;63461;51.416;6.758;2023-05-10T09:27:37;31.85;;;15.23;;
74900;SDS011;63461;51.416;6.758;2023-05-10T09:30:04;33.13;;;15.32;;
74900;SDS011;63461;51.416;6.758;2023-05-10T09:32:45;31.67;;;14.75;;
74900;SDS011;63461;51.416;6.758;2023-05-10T09:35:16;31.00;;;13.82;;
74900;SDS011;63461;51.416;6.758;2023-05-10T09:37:48;26.95;;;13.90;;
74900;SDS011;63461;51.416;6.758;2023-05-10T09:40:16;31.73;;;13.90;;
74900;SDS011;63461;51.416;6.758;2023-05-10T09:42:50;26.77;;;13.18;;
74900;SDS011;63461;51.416;6.758;2023-05-10T09:45:23;25.23;;;12.18;;
74900;SDS011;63461;51.416;6.758;2023-05-10T09:47:50;25.70;;;11.48;;
74900;SDS011;63461;51.416;6.758;2023-05-10T09:50:16;27.52;;;13.48;;
74900;SDS011;63461;51.416;6.758;2023-05-10T09:52:50;29.17;;;13.40;;
74900;SDS011;63461;51.416;6.758;2023-05-10T09:55:22;29.83;;;13.55;;
74900;SDS011;63461;51.416;6.758;2023-05-10T09:58:03;28.27;;;13.55;;
74900;SDS011;63461;51.416;6.758;2023-05-10T10:00:35;35.90;;;14.88;;
74900;SDS011;63461;51.416;6.758;2023-05-10T10:03:02;30.95;;;13.70;;
74900;SDS011;63461;51.416;6.758;2023-05-10T10:05:29;30.92;;;14.50;;
74900;SDS011;63461;51.416;6.758;2023-05-10T10:07:56;31.30;;;14.13;;
74900;SDS011;63461;51.416;6.758;2023-05-10T10:10:24;31.92;;;12.57;;
74900;SDS011;63461;51.416;6.758;2023-05-10T10:12:53;27.90;;;13.30;;
74900;SDS011;63461;51.416;6.758;2023-05-10T10:15:20;26.65;;;12.60;;
74900;SDS011;63461;51.416;6.758;2023-05-10T10:17:47;26.35;;;12.43;;
74900;SDS011;63461;51.416;6.758;2023-05-10T10:20:14;26.30;;;12.98;;
74900;SDS011;63461;51.416;6.758;2023-05-10T10:22:40;27.85;;;13.55;;
74900;SDS011;63461;51.416;6.758;2023-05-10T10:25:06;27.20;;;12.57;;
74900;SDS011;63461;51.416;6.758;2023-05-10T10:27:49;31.77;;;13.85;;
74900;SDS011;63461;51.416;6.758;2023-05-10T10:30:37;27.67;;;13.23;;
74900;SDS011;63461;51.416;6.758;2023-05-10T10:35:48;29.08;;;13.73;;
74900;SDS011;63461;51.416;6.758;2023-05-10T10:38:21;25.13;;;13.50;;
74900;SDS011;63461;51.416;6.758;2023-05-10T10:40:47;28.20;;;14.50;;
74900;SDS011;63461;51.416;6.758;2023-05-10T10:43:26;29.10;;;14.23;;
74900;SDS011;63461;51.416;6.758;2023-05-10T10:46:09;31.05;;;14.48;;
74900;SDS011;63461;51.416;6.758;2023-05-10T10:48:37;32.08;;;14.50;;
74900;SDS011;63461;51.416;6.758;2023-05-10T10:51:03;26.42;;;14.73;;
74900;SDS011;63461;51.416;6.758;2023-05-10T10:53:29;32.08;;;15.15;;
74900;SDS011;63461;51.416;6.758;2023-05-10T10:56:05;29.65;;;15.00;;
74900;SDS011;63461;51.416;6.758;2023-05-10T10:58:35;31.23;;;15.60;;
74900;SDS011;63461;51.416;6.758;2023-05-10T11:01:10;29.80;;;15.60;;
74900;SDS011;63461;51.416;6.758;2023-05-10T11:06:30;31.90;;;14.82;;
74900;SDS011;63461;51.416;6.758;2023-05-10T11:08:57;32.33;;;14.00;;
74900;SDS011;63461;51.416;6.758;2023-05-10T11:11:23;25.60;;;13.70;;
74900;SDS011;63461;51.416;6.758;2023-05-10T11:13:49;28.90;;;13.95;;
74900;SDS011;63461;51.416;6.758;2023-05-10T11:21:18;19.38;;;8.77;;
74900;SDS011;63461;51.416;6.758;2023-05-10T11:26:10;20.67;;;10.32;;
74900;SDS011;63461;51.416;6.758;2023-05-10T11:28:46;19.08;;;10.27;;
74900;SDS011;63461;51.416;6.758;2023-05-10T11:31:17;18.15;;;10.55;;
74900;SDS011;63461;51.416;6.758;2023-05-10T11:33:50;17.52;;;9.68;;
74900;SDS011;63461;51.416;6.758;2023-05-10T11:36:18;20.73;;;9.93;;
74900;SDS011;63461;51.416;6.758;2023-05-10T11:38:45;17.90;;;9.25;;
74900;SDS011;63461;51.416;6.758;2023-05-10T11:41:12;18.95;;;9.63;;
74900;SDS011;63461;51.416;6.758;2023-05-10T11:43:39;14.32;;;8.88;;
74900;SDS011;63461;51.416;6.758;2023-05-10T11:46:06;12.80;;;6.55;;
74900;SDS011;63461;51.416;6.758;2023-05-10T11:48:36;16.10;;;8.60;;
74900;SDS011;63461;51.416;6.758;2023-05-10T11:51:04;14.32;;;6.93;;
74900;SDS011;63461;51.416;6.758;2023-05-10T11:53:31;11.90;;;6.03;;
74900;SDS011;63461;51.416;6.758;2023-05-10T11:56:07;14.13;;;6.47;;
74900;SDS011;63461;51.416;6.758;2023-05-10T11:58:35;14.93;;;6.57;;
74900;SDS011;63461;51.416;6.758;2023-05-10T12:01:02;15.88;;;7.20;;
74900;SDS011;63461;51.416;6.758;2023-05-10T12:03:29;13.13;;;6.18;;
74900;SDS011;63461;51.416;6.758;2023-05-10T12:05:56;14.02;;;7.35;;
74900;SDS011;63461;51.416;6.758;2023-05-10T12:08:26;12.10;;;6.35;;
74900;SDS011;63461;51.416;6.758;2023-05-10T12:11:07;11.80;;;5.65;;
74900;SDS011;63461;51.416;6.758;2023-05-10T12:13:39;10.73;;;6.07;;
74900;SDS011;63461;51.416;6.758;2023-05-10T12:19:01;9.43;;;5.72;;
74900;SDS011;63461;51.416;6.758;2023-05-10T12:21:27;13.35;;;6.72;;
74900;SDS011;63461;51.416;6.758;2023-05-10T12:23:59;11.13;;;5.78;;
74900;SDS011;63461;51.416;6.758;2023-05-10T12:26:27;11.80;;;5.80;;
74900;SDS011;63461;51.416;6.758;2023-05-10T12:28:53;12.38;;;6.45;;
74900;SDS011;63461;51.416;6.758;2023-05-10T12:31:20;13.85;;;6.47;;
74900;SDS011;63461;51.416;6.758;2023-05-10T12:33:45;13.82;;;6.60;;
74900;SDS011;63461;51.416;6.758;2023-05-10T12:36:13;14.02;;;6.32;;
74900;SDS011;63461;51.416;6.758;2023-05-10T12:38:44;16.45;;;7.47;;
74900;SDS011;63461;51.416;6.758;2023-05-10T12:41:14;10.73;;;6.68;;
74900;SDS011;63461;51.416;6.758;2023-05-10T12:43:40;10.70;;;6.35;;
74900;SDS011;63461;51.416;6.758;2023-05-10T12:46:08;8.57;;;5.60;;
74900;SDS011;63461;51.416;6.758;2023-05-10T12:48:39;10.90;;;6.28;;
74900;SDS011;63461;51.416;6.758;2023-05-10T12:51:06;9.48;;;5.90;;
74900;SDS011;63461;51.416;6.758;2023-05-10T12:53:34;10.80;;;5.93;;
74900;SDS011;63461;51.416;6.758;2023-05-10T12:56:01;11.35;;;5.32;;
74900;SDS011;63461;51.416;6.758;2023-05-10T12:58:26;9.30;;;5.60;;
74900;SDS011;63461;51.416;6.758;2023-05-10T13:00:52;8.38;;;5.60;;
74900;SDS011;63461;51.416;6.758;2023-05-10T13:03:18;12.90;;;6.13;;
74900;SDS011;63461;51.416;6.758;2023-05-10T13:05:44;11.60;;;6.10;;
74900;SDS011;63461;51.416;6.758;2023-05-10T13:08:10;14.43;;;7.20;;
74900;SDS011;63461;51.416;6.758;2023-05-10T13:10:36;11.55;;;6.90;;
74900;SDS011;63461;51.416;6.758;2023-05-10T13:13:02;12.80;;;6.07;;
74900;SDS011;63461;51.416;6.758;2023-05-10T13:15:27;10.38;;;5.85;;
74900;SDS011;63461;51.416;6.758;2023-05-10T13:17:53;8.60;;;5.22;;
74900;SDS011;63461;51.416;6.758;2023-05-10T13:20:20;11.90;;;5.57;;
74900;SDS011;63461;51.416;6.758;2023-05-10T13:22:46;10.93;;;5.57;;
74900;SDS011;63461;51.416;6.758;2023-05-10T13:25:12;8.55;;;5.57;;
74900;SDS011;63461;51.416;6.758;2023-05-10T13:27:41;9.50;;;5.82;;
74900;SDS011;63461;51.416;6.758;2023-05-10T13:30:07;11.85;;;6.07;;
74900;SDS011;63461;51.416;6.758;2023-05-10T13:32:34;11.07;;;6.32;;
74900;SDS011;63461;51.416;6.758;2023-05-10T13:35:00;9.90;;;5.40;;
74900;SDS011;63461;51.416;6.758;2023-05-10T13:37:28;10.75;;;6.03;;
74900;SDS011;63461;51.416;6.758;2023-05-10T13:39:54;13.50;;;6.28;;
74900;SDS011;63461;51.416;6.758;2023-05-10T13:42:21;11.05;;;6.90;;
74900;SDS011;63461;51.416;6.758;2023-05-10T13:44:48;11.68;;;7.00;;
74900;SDS011;63461;51.416;6.758;2023-05-10T13:47:14;10.68;;;6.00;;
74900;SDS011;63461;51.416;6.758;2023-05-10T13:49:40;9.48;;;6.32;;
74900;SDS011;63461;51.416;6.758;2023-05-10T13:52:06;9.38;;;6.07;;
74900;SDS011;63461;51.416;6.758;2023-05-10T13:54:36;14.43;;;6.60;;
74900;SDS011;63461;51.416;6.758;2023-05-10T13:57:02;11.07;;;6.82;;
74900;SDS011;63461;51.416;6.758;2023-05-10T13:59:28;12.85;;;7.97;;
74900;SDS011;63461;51.416;6.758;2023-05-10T14:01:54;12.68;;;7.57;;
74900;SDS011;63461;51.416;6.758;2023-05-10T14:04:19;13.07;;;7.43;;
74900;SDS011;63461;51.416;6.758;2023-05-10T14:06:45;12.50;;;7.18;;
74900;SDS011;63461;51.416;6.758;2023-05-10T14:09:11;12.20;;;6.25;;
74900;SDS011;63461;51.416;6.758;2023-05-10T14:11:37;13.23;;;7.68;;
74900;SDS011;63461;51.416;6.758;2023-05-10T14:14:06;14.15;;;6.82;;
74900;SDS011;63461;51.416;6.758;2023-05-10T14:16:32;12.30;;;6.53;;
74900;SDS011;63461;51.416;6.758;2023-05-10T14:18:58;10.07;;;6.47;;
74900;SDS011;63461;51.416;6.758;2023-05-10T14:21:24;12.27;;;7.20;;
74900;SDS011;63461;51.416;6.758;2023-05-10T14:23:50;16.63;;;7.55;;
74900;SDS011;63461;51.416;6.758;2023-05-10T14:26:15;12.40;;;6.90;;
74900;SDS011;63461;51.416;6.758;2023-05-10T14:28:41;13.88;;;7.50;;
74900;SDS011;63461;51.416;6.758;2023-05-10T14:31:07;10.23;;;6.00;;
74900;SDS011;63461;51.416;6.758;2023-05-10T14:33:33;14.43;;;7.78;;
74900;SDS011;63461;51.416;6.758;2023-05-10T14:35:58;13.32;;;8.27;;
74900;SDS011;63461;51.416;6.758;2023-05-10T14:56:11;18.50;;;10.35;;
74900;SDS011;63461;51.416;6.758;2023-05-10T14:58:37;20.40;;;10.75;;
74900;SDS011;63461;51.416;6.758;2023-05-10T15:01:03;18.05;;;11.43;;
74900;SDS011;63461;51.416;6.758;2023-05-10T15:03:29;22.73;;;12.38;;
74900;SDS011;63461;51.416;6.758;2023-05-10T15:05:54;21.33;;;12.27;;
74900;SDS011;63461;51.416;6.758;2023-05-10T15:08:22;24.05;;;12.98;;
74900;SDS011;63461;51.416;6.758;2023-05-10T15:10:49;25.33;;;13.60;;
74900;SDS011;63461;51.416;6.758;2023-05-10T15:13:16;22.25;;;13.18;;
74900;SDS011;63461;51.416;6.758;2023-05-10T15:15:42;23.10;;;12.95;;
74900;SDS011;63461;51.416;6.758;2023-05-10T15:18:10;23.23;;;12.55;;
74900;SDS011;63461;51.416;6.758;2023-05-10T15:20:36;25.08;;;12.32;;